sensor_id;sensor_type;location;lat;lon;timestamp;pressure;altitude;pressure_sealevel;temperature;humidity
54308;BME280;40208;39.778;2.710;2024-02-26T00:01:35;99993.69;;;15.31;nan
54308;BME280;40208;39.778;2.710;2024-02-26T00:04:20;100026.91;;;15.62;89.84
54308;BME280;40208;39.778;2.710;2024-02-26T00:07:06;99862.53;;;14.52;90.10
54308;BME280;40208;39.778;2.710;2024-02-26T00:09:51;99859.63;;;14.43;92.42
54308;BME280;40208;39.778;2.710;2024-02-26T00:12:35;99807.53;;;14.27;90.25
54308;BME280;40208;39.778;2.710;2024-02-26T00:15:20;99938.84;;;15.14;90.49
54308;BME280;40208;39.778;2.710;2024-02-26T00:18:05;100054.44;;;15.86;89.71
54308;BME280;40208;39.778;2.710;2024-02-26T00:20:50;100044.91;;;15.60;90.96
54308;BME280;40208;39.778;2.710;2024-02-26T00:23:34;100049.44;;;15.71;91.42
54308;BME280;40208;39.778;2.710;2024-02-26T00:26:19;100026.81;;;15.86;90.65
54308;BME280;40208;39.778;2.710;2024-02-26T00:29:04;99827.28;;;14.59;90.78
54308;BME280;40208;39.778;2.710;2024-02-26T00:31:49;99914.91;;;15.12;91.18
54308;BME280;40208;39.778;2.710;2024-02-26T00:34:35;100027.91;;;16.17;88.29
54308;BME280;40208;39.778;2.710;2024-02-26T00:37:20;99956.88;;;15.45;88.28
54308;BME280;40208;39.778;2.710;2024-02-26T00:40:05;100041.66;;;16.13;88.89
54308;BME280;40208;39.778;2.710;2024-02-26T00:42:51;99836.91;;;14.96;88.16
54308;BME280;40208;39.778;2.710;2024-02-26T00:45:36;99968.31;;;15.70;88.38
54308;BME280;40208;39.778;2.710;2024-02-26T00:48:21;99943.28;;;15.71;86.92
54308;BME280;40208;39.778;2.710;2024-02-26T00:51:05;99863.78;;;15.17;84.92
54308;BME280;40208;39.778;2.710;2024-02-26T00:53:50;100037.22;;;16.45;83.38
54308;BME280;40208;39.778;2.710;2024-02-26T00:56:35;99964.53;;;16.06;84.78
54308;BME280;40208;39.778;2.710;2024-02-26T00:59:20;99924.06;;;15.55;86.01
54308;BME280;40208;39.778;2.710;2024-02-26T01:02:05;99989.31;;;16.20;85.39
54308;BME280;40208;39.778;2.710;2024-02-26T01:04:51;100028.53;;;16.21;86.00
54308;BME280;40208;39.778;2.710;2024-02-26T01:07:35;100009.56;;;15.90;87.80
54308;BME280;40208;39.778;2.710;2024-02-26T01:10:21;99905.53;;;15.06;88.50
54308;BME280;40208;39.778;2.710;2024-02-26T01:13:05;99935.72;;;15.42;90.03
54308;BME280;40208;39.778;2.710;2024-02-26T01:15:52;100004.16;;;16.24;88.45
54308;BME280;40208;39.778;2.710;2024-02-26T01:18:36;99972.69;;;15.82;89.23
54308;BME280;40208;39.778;2.710;2024-02-26T01:21:22;99916.03;;;15.43;89.16
54308;BME280;40208;39.778;2.710;2024-02-26T01:24:06;99917.25;;;15.62;89.31
54308;BME280;40208;39.778;2.710;2024-02-26T01:26:52;99989.66;;;16.26;87.31
54308;BME280;40208;39.778;2.710;2024-02-26T01:29:36;99978.19;;;15.81;88.47
54308;BME280;40208;39.778;2.710;2024-02-26T01:32:21;99929.88;;;15.48;89.92
54308;BME280;40208;39.778;2.710;2024-02-26T01:35:06;99989.22;;;15.99;90.33
54308;BME280;40208;39.778;2.710;2024-02-26T01:37:56;99979.81;;;16.16;89.21
54308;BME280;40208;39.778;2.710;2024-02-26T01:40:41;99953.22;;;15.92;89.09
54308;BME280;40208;39.778;2.710;2024-02-26T01:43:26;99980.53;;;16.29;87.59
54308;BME280;40208;39.778;2.710;2024-02-26T01:46:13;99981.56;;;16.05;89.07
54308;BME280;40208;39.778;2.710;2024-02-26T01:48:59;99911.53;;;15.55;89.81
54308;BME280;40208;39.778;2.710;2024-02-26T01:51:45;99911.53;;;15.66;89.63
54308;BME280;40208;39.778;2.710;2024-02-26T01:54:31;99913.25;;;15.34;91.30
54308;BME280;40208;39.778;2.710;2024-02-26T01:57:16;99792.22;;;14.87;91.47
54308;BME280;40208;39.778;2.710;2024-02-26T02:00:02;99993.84;;;16.08;90.19
54308;BME280;40208;39.778;2.710;2024-02-26T02:02:50;99941.69;;;15.57;91.23
54308;BME280;40208;39.778;2.710;2024-02-26T02:05:36;99986.56;;;15.87;93.42
54308;BME280;40208;39.778;2.710;2024-02-26T02:08:27;99985.78;;;16.19;91.95
54308;BME280;40208;39.778;2.710;2024-02-26T02:11:12;99990.41;;;16.17;91.36
54308;BME280;40208;39.778;2.710;2024-02-26T02:13:59;99906.66;;;15.49;92.48
54308;BME280;40208;39.778;2.710;2024-02-26T02:16:44;99907.41;;;15.29;93.30
54308;BME280;40208;39.778;2.710;2024-02-26T02:19:28;99881.88;;;15.36;94.19
54308;BME280;40208;39.778;2.710;2024-02-26T02:22:13;99896.56;;;15.64;93.41
54308;BME280;40208;39.778;2.710;2024-02-26T02:24:58;99909.31;;;15.60;93.25
54308;BME280;40208;39.778;2.710;2024-02-26T02:27:43;99951.88;;;15.63;95.38
54308;BME280;40208;39.778;2.710;2024-02-26T02:30:29;99958.34;;;15.83;94.93
54308;BME280;40208;39.778;2.710;2024-02-26T02:33:15;99969.78;;;15.85;93.98
54308;BME280;40208;39.778;2.710;2024-02-26T02:36:00;99889.41;;;15.08;95.56
54308;BME280;40208;39.778;2.710;2024-02-26T02:38:48;99976.22;;;15.94;95.48
54308;BME280;40208;39.778;2.710;2024-02-26T02:41:36;99910.44;;;15.46;95.07
54308;BME280;40208;39.778;2.710;2024-02-26T02:44:21;99985.22;;;16.04;94.85
54308;BME280;40208;39.778;2.710;2024-02-26T02:47:06;99908.38;;;15.50;95.89
54308;BME280;40208;39.778;2.710;2024-02-26T02:49:51;99965.53;;;15.83;97.52
54308;BME280;40208;39.778;2.710;2024-02-26T02:52:35;99939.25;;;15.77;96.43
54308;BME280;40208;39.778;2.710;2024-02-26T02:55:20;99986.69;;;15.86;97.52
54308;BME280;40208;39.778;2.710;2024-02-26T02:58:05;99982.06;;;15.99;97.53
54308;BME280;40208;39.778;2.710;2024-02-26T03:00:50;99788.59;;;14.76;99.99
54308;BME280;40208;39.778;2.710;2024-02-26T03:03:34;99958.47;;;15.71;100.00
54308;BME280;40208;39.778;2.710;2024-02-26T03:06:21;99971.00;;;15.81;100.00
54308;BME280;40208;39.778;2.710;2024-02-26T03:09:06;99952.84;;;15.62;100.00
54308;BME280;40208;39.778;2.710;2024-02-26T03:11:51;99906.06;;;15.34;100.00
54308;BME280;40208;39.778;2.710;2024-02-26T03:14:36;99958.00;;;15.77;100.00
54308;BME280;40208;39.778;2.710;2024-02-26T03:17:21;99804.00;;;15.06;100.00
54308;BME280;40208;39.778;2.710;2024-02-26T03:20:06;99715.19;;;14.35;100.00
54308;BME280;40208;39.778;2.710;2024-02-26T03:22:53;99950.06;;;15.75;100.00
54308;BME280;40208;39.778;2.710;2024-02-26T03:25:38;99938.28;;;15.89;99.40
54308;BME280;40208;39.778;2.710;2024-02-26T03:28:22;99893.03;;;15.63;100.00
54308;BME280;40208;39.778;2.710;2024-02-26T03:31:07;99754.56;;;15.01;98.95
54308;BME280;40208;39.778;2.710;2024-02-26T03:33:52;99899.00;;;15.44;100.00
54308;BME280;40208;39.778;2.710;2024-02-26T03:36:37;99932.44;;;15.61;100.00
54308;BME280;40208;39.778;2.710;2024-02-26T03:39:22;99923.91;;;15.67;100.00
54308;BME280;40208;39.778;2.710;2024-02-26T03:42:06;99847.59;;;14.96;100.00
54308;BME280;40208;39.778;2.710;2024-02-26T03:44:51;99892.56;;;15.58;100.00
54308;BME280;40208;39.778;2.710;2024-02-26T03:47:37;99881.75;;;15.60;99.91
54308;BME280;40208;39.778;2.710;2024-02-26T03:50:24;99893.53;;;15.80;99.25
54308;BME280;40208;39.778;2.710;2024-02-26T03:53:09;99891.72;;;15.80;98.42
54308;BME280;40208;39.778;2.710;2024-02-26T03:55:57;99908.84;;;15.78;99.76
54308;BME280;40208;39.778;2.710;2024-02-26T03:58:41;99735.38;;;14.84;99.34
54308;BME280;40208;39.778;2.710;2024-02-26T04:01:26;99861.69;;;15.54;100.00
54308;BME280;40208;39.778;2.710;2024-02-26T04:04:11;99892.31;;;15.61;100.00
54308;BME280;40208;39.778;2.710;2024-02-26T04:06:56;99682.97;;;14.61;99.93
54308;BME280;40208;39.778;2.710;2024-02-26T04:09:41;99803.16;;;15.29;99.79
54308;BME280;40208;39.778;2.710;2024-02-26T04:12:26;99767.41;;;15.18;99.48
54308;BME280;40208;39.778;2.710;2024-02-26T04:15:10;99844.63;;;15.78;99.79
54308;BME280;40208;39.778;2.710;2024-02-26T04:17:55;99788.56;;;15.10;100.00
54308;BME280;40208;39.778;2.710;2024-02-26T04:20:40;99819.88;;;15.42;100.00
54308;BME280;40208;39.778;2.710;2024-02-26T04:23:26;99827.88;;;15.53;99.83
54308;BME280;40208;39.778;2.710;2024-02-26T04:26:11;99777.66;;;15.02;100.00
54308;BME280;40208;39.778;2.710;2024-02-26T04:28:56;99896.66;;;15.85;100.00
54308;BME280;40208;39.778;2.710;2024-02-26T04:31:40;99894.25;;;15.82;100.00
54308;BME280;40208;39.778;2.710;2024-02-26T04:34:27;99723.25;;;15.03;100.00
54308;BME280;40208;39.778;2.710;2024-02-26T04:37:12;99741.69;;;15.17;100.00
54308;BME280;40208;39.778;2.710;2024-02-26T04:40:00;99867.63;;;15.69;100.00
54308;BME280;40208;39.778;2.710;2024-02-26T04:42:45;99912.06;;;16.04;100.00
54308;BME280;40208;39.778;2.710;2024-02-26T04:45:30;99894.94;;;16.06;100.00
54308;BME280;40208;39.778;2.710;2024-02-26T04:48:15;99895.31;;;16.02;100.00
54308;BME280;40208;39.778;2.710;2024-02-26T04:51:00;99727.97;;;14.99;100.00
54308;BME280;40208;39.778;2.710;2024-02-26T04:53:45;99886.69;;;15.98;100.00
54308;BME280;40208;39.778;2.710;2024-02-26T04:56:30;99741.31;;;14.99;100.00
54308;BME280;40208;39.778;2.710;2024-02-26T04:59:15;99887.81;;;15.84;100.00
54308;BME280;40208;39.778;2.710;2024-02-26T05:02:00;99889.41;;;15.76;100.00
54308;BME280;40208;39.778;2.710;2024-02-26T05:04:45;99787.38;;;15.14;100.00
54308;BME280;40208;39.778;2.710;2024-02-26T05:07:29;99685.38;;;14.53;100.00
54308;BME280;40208;39.778;2.710;2024-02-26T05:10:14;99918.81;;;15.87;100.00
54308;BME280;40208;39.778;2.710;2024-02-26T05:12:59;99838.97;;;15.48;100.00
54308;BME280;40208;39.778;2.710;2024-02-26T05:15:44;99799.84;;;15.14;100.00
54308;BME280;40208;39.778;2.710;2024-02-26T05:18:31;99715.38;;;14.68;100.00
54308;BME280;40208;39.778;2.710;2024-02-26T05:21:16;99880.91;;;15.59;100.00
54308;BME280;40208;39.778;2.710;2024-02-26T05:24:01;99871.78;;;15.51;100.00
54308;BME280;40208;39.778;2.710;2024-02-26T05:26:45;99868.88;;;15.42;100.00
54308;BME280;40208;39.778;2.710;2024-02-26T05:29:30;99856.84;;;15.25;100.00
54308;BME280;40208;39.778;2.710;2024-02-26T05:32:15;99706.47;;;14.22;100.00
54308;BME280;40208;39.778;2.710;2024-02-26T05:35:00;99868.38;;;15.03;100.00
54308;BME280;40208;39.778;2.710;2024-02-26T05:37:45;99710.19;;;14.08;100.00
54308;BME280;40208;39.778;2.710;2024-02-26T05:40:30;99908.72;;;15.23;100.00
54308;BME280;40208;39.778;2.710;2024-02-26T05:43:15;99698.53;;;14.09;100.00
54308;BME280;40208;39.778;2.710;2024-02-26T05:46:02;99902.88;;;15.18;100.00
54308;BME280;40208;39.778;2.710;2024-02-26T05:48:52;99858.38;;;14.72;100.00
54308;BME280;40208;39.778;2.710;2024-02-26T05:51:37;99919.78;;;15.18;100.00
54308;BME280;40208;39.778;2.710;2024-02-26T05:54:21;99910.03;;;15.06;100.00
54308;BME280;40208;39.778;2.710;2024-02-26T05:57:06;99874.06;;;14.88;100.00
54308;BME280;40208;39.778;2.710;2024-02-26T05:59:51;99786.03;;;14.28;100.00
54308;BME280;40208;39.778;2.710;2024-02-26T06:02:36;99788.50;;;14.42;100.00
54308;BME280;40208;39.778;2.710;2024-02-26T06:05:21;99833.34;;;14.61;100.00
54308;BME280;40208;39.778;2.710;2024-02-26T06:08:06;99844.78;;;14.75;100.00
54308;BME280;40208;39.778;2.710;2024-02-26T06:10:51;99845.63;;;14.75;100.00
54308;BME280;40208;39.778;2.710;2024-02-26T06:13:36;99924.50;;;15.03;100.00
54308;BME280;40208;39.778;2.710;2024-02-26T06:16:21;99761.91;;;13.94;100.00
54308;BME280;40208;39.778;2.710;2024-02-26T06:19:06;99961.59;;;15.19;100.00
54308;BME280;40208;39.778;2.710;2024-02-26T06:21:51;99963.41;;;15.19;100.00
54308;BME280;40208;39.778;2.710;2024-02-26T06:24:36;99954.63;;;15.05;100.00
54308;BME280;40208;39.778;2.710;2024-02-26T06:27:21;99951.56;;;14.99;100.00
54308;BME280;40208;39.778;2.710;2024-02-26T06:30:06;99968.03;;;15.17;100.00
54308;BME280;40208;39.778;2.710;2024-02-26T06:32:53;99973.13;;;15.20;100.00
54308;BME280;40208;39.778;2.710;2024-02-26T06:35:38;99931.63;;;14.92;100.00
54308;BME280;40208;39.778;2.710;2024-02-26T06:38:22;99896.03;;;14.80;100.00
54308;BME280;40208;39.778;2.710;2024-02-26T06:41:07;99960.38;;;15.23;100.00
54308;BME280;40208;39.778;2.710;2024-02-26T06:43:53;99818.34;;;14.36;100.00
54308;BME280;40208;39.778;2.710;2024-02-26T06:46:38;99808.41;;;14.38;100.00
54308;BME280;40208;39.778;2.710;2024-02-26T06:49:24;99919.78;;;15.07;100.00
54308;BME280;40208;39.778;2.710;2024-02-26T06:52:08;99888.81;;;15.04;100.00
54308;BME280;40208;39.778;2.710;2024-02-26T06:54:53;99954.78;;;15.49;100.00
54308;BME280;40208;39.778;2.710;2024-02-26T06:57:38;99722.78;;;14.06;100.00
54308;BME280;40208;39.778;2.710;2024-02-26T07:00:23;99965.13;;;15.54;100.00
54308;BME280;40208;39.778;2.710;2024-02-26T07:03:08;99763.97;;;14.37;100.00
54308;BME280;40208;39.778;2.710;2024-02-26T07:05:52;99945.81;;;15.61;100.00
54308;BME280;40208;39.778;2.710;2024-02-26T07:08:37;99895.88;;;15.28;100.00
54308;BME280;40208;39.778;2.710;2024-02-26T07:11:22;99975.88;;;15.76;100.00
54308;BME280;40208;39.778;2.710;2024-02-26T07:14:10;99921.00;;;15.48;100.00
54308;BME280;40208;39.778;2.710;2024-02-26T07:16:55;99957.09;;;15.54;100.00
54308;BME280;40208;39.778;2.710;2024-02-26T07:19:39;99995.44;;;15.77;100.00
54308;BME280;40208;39.778;2.710;2024-02-26T07:22:24;99854.78;;;14.95;100.00
54308;BME280;40208;39.778;2.710;2024-02-26T07:25:09;99996.00;;;15.58;100.00
54308;BME280;40208;39.778;2.710;2024-02-26T07:27:57;99947.59;;;15.16;100.00
54308;BME280;40208;39.778;2.710;2024-02-26T07:30:42;99756.72;;;14.04;100.00
54308;BME280;40208;39.778;2.710;2024-02-26T07:33:27;99603.34;;;13.16;100.00
54308;BME280;40208;39.778;2.710;2024-02-26T07:36:12;99687.72;;;13.53;100.00
54308;BME280;40208;39.778;2.710;2024-02-26T07:38:57;99439.94;;;12.10;100.00
54308;BME280;40208;39.778;2.710;2024-02-26T07:41:42;99644.50;;;13.12;100.00
54308;BME280;40208;39.778;2.710;2024-02-26T07:44:31;99722.75;;;13.95;100.00
54308;BME280;40208;39.778;2.710;2024-02-26T07:47:16;99425.28;;;12.17;100.00
54308;BME280;40208;39.778;2.710;2024-02-26T07:50:01;99961.47;;;15.32;100.00
54308;BME280;40208;39.778;2.710;2024-02-26T07:52:46;99924.47;;;14.92;100.00
54308;BME280;40208;39.778;2.710;2024-02-26T07:55:31;99655.63;;;13.30;100.00
54308;BME280;40208;39.778;2.710;2024-02-26T07:58:15;99720.25;;;13.69;100.00
54308;BME280;40208;39.778;2.710;2024-02-26T08:01:01;99870.13;;;14.58;100.00
54308;BME280;40208;39.778;2.710;2024-02-26T08:03:46;99736.28;;;13.81;100.00
54308;BME280;40208;39.778;2.710;2024-02-26T08:06:31;99882.84;;;14.54;100.00
54308;BME280;40208;39.778;2.710;2024-02-26T08:09:15;99815.38;;;14.28;100.00
54308;BME280;40208;39.778;2.710;2024-02-26T08:12:00;99960.72;;;15.08;100.00
54308;BME280;40208;39.778;2.710;2024-02-26T08:14:45;100007.84;;;15.09;100.00
54308;BME280;40208;39.778;2.710;2024-02-26T08:17:30;99991.47;;;15.24;100.00
54308;BME280;40208;39.778;2.710;2024-02-26T08:20:15;99975.94;;;15.30;100.00
54308;BME280;40208;39.778;2.710;2024-02-26T08:22:59;99975.19;;;15.27;100.00
54308;BME280;40208;39.778;2.710;2024-02-26T08:25:44;99988.56;;;15.27;100.00
54308;BME280;40208;39.778;2.710;2024-02-26T08:28:29;99918.28;;;14.92;100.00
54308;BME280;40208;39.778;2.710;2024-02-26T08:31:14;99623.94;;;13.14;100.00
54308;BME280;40208;39.778;2.710;2024-02-26T08:33:59;99985.78;;;15.29;100.00
54308;BME280;40208;39.778;2.710;2024-02-26T08:36:45;99825.22;;;14.28;100.00
54308;BME280;40208;39.778;2.710;2024-02-26T08:39:30;99992.94;;;15.29;100.00
54308;BME280;40208;39.778;2.710;2024-02-26T08:42:15;99852.94;;;14.38;100.00
54308;BME280;40208;39.778;2.710;2024-02-26T08:45:00;99981.25;;;15.18;100.00
54308;BME280;40208;39.778;2.710;2024-02-26T08:47:46;99933.34;;;14.93;100.00
54308;BME280;40208;39.778;2.710;2024-02-26T08:50:31;99918.78;;;14.86;100.00
54308;BME280;40208;39.778;2.710;2024-02-26T08:53:16;99934.19;;;14.93;100.00
54308;BME280;40208;39.778;2.710;2024-02-26T08:56:01;99750.59;;;13.79;100.00
54308;BME280;40208;39.778;2.710;2024-02-26T08:58:46;99990.03;;;15.32;100.00
54308;BME280;40208;39.778;2.710;2024-02-26T09:01:33;99966.47;;;15.37;100.00
54308;BME280;40208;39.778;2.710;2024-02-26T09:04:17;99660.66;;;13.46;100.00
54308;BME280;40208;39.778;2.710;2024-02-26T09:07:02;99569.47;;;12.94;100.00
54308;BME280;40208;39.778;2.710;2024-02-26T09:09:47;99676.06;;;13.54;100.00
54308;BME280;40208;39.778;2.710;2024-02-26T09:12:32;99578.47;;;12.81;100.00
54308;BME280;40208;39.778;2.710;2024-02-26T09:15:18;99975.19;;;15.27;100.00
54308;BME280;40208;39.778;2.710;2024-02-26T09:18:02;99973.25;;;15.30;100.00
54308;BME280;40208;39.778;2.710;2024-02-26T09:20:47;99988.44;;;15.29;100.00
54308;BME280;40208;39.778;2.710;2024-02-26T09:23:32;99977.75;;;15.29;100.00
54308;BME280;40208;39.778;2.710;2024-02-26T09:26:17;99815.13;;;14.20;100.00
54308;BME280;40208;39.778;2.710;2024-02-26T09:29:02;99602.25;;;12.95;100.00
54308;BME280;40208;39.778;2.710;2024-02-26T09:31:48;99836.88;;;14.27;100.00
54308;BME280;40208;39.778;2.710;2024-02-26T09:34:33;99671.56;;;13.43;100.00
54308;BME280;40208;39.778;2.710;2024-02-26T09:37:18;99623.41;;;13.09;100.00
54308;BME280;40208;39.778;2.710;2024-02-26T09:40:04;99865.56;;;14.71;100.00
54308;BME280;40208;39.778;2.710;2024-02-26T09:42:54;99442.31;;;12.02;100.00
54308;BME280;40208;39.778;2.710;2024-02-26T09:45:40;99975.22;;;15.39;100.00
54308;BME280;40208;39.778;2.710;2024-02-26T09:48:25;99974.13;;;15.41;100.00
54308;BME280;40208;39.778;2.710;2024-02-26T09:51:10;99965.16;;;15.42;100.00
54308;BME280;40208;39.778;2.710;2024-02-26T09:53:59;99771.72;;;14.29;100.00
54308;BME280;40208;39.778;2.710;2024-02-26T09:56:48;99948.00;;;15.45;100.00
54308;BME280;40208;39.778;2.710;2024-02-26T09:59:39;99849.41;;;14.84;100.00
54308;BME280;40208;39.778;2.710;2024-02-26T10:02:27;99665.41;;;13.54;100.00
54308;BME280;40208;39.778;2.710;2024-02-26T10:05:16;99963.06;;;15.46;100.00
54308;BME280;40208;39.778;2.710;2024-02-26T10:08:02;99964.41;;;15.52;100.00
54308;BME280;40208;39.778;2.710;2024-02-26T10:10:48;100022.38;;;15.51;100.00
54308;BME280;40208;39.778;2.710;2024-02-26T10:13:36;99532.03;;;12.61;100.00
54308;BME280;40208;39.778;2.710;2024-02-26T10:16:22;99543.81;;;12.69;100.00
54308;BME280;40208;39.778;2.710;2024-02-26T10:19:07;99628.88;;;13.19;100.00
54308;BME280;40208;39.778;2.710;2024-02-26T10:21:56;99475.84;;;12.77;100.00
54308;BME280;40208;39.778;2.710;2024-02-26T10:24:42;99313.22;;;11.98;100.00
54308;BME280;40208;39.778;2.710;2024-02-26T10:27:28;99540.13;;;13.19;100.00
54308;BME280;40208;39.778;2.710;2024-02-26T10:30:17;99946.28;;;15.21;100.00
54308;BME280;40208;39.778;2.710;2024-02-26T10:33:03;99908.69;;;14.54;100.00
54308;BME280;40208;39.778;2.710;2024-02-26T10:35:48;99353.66;;;11.03;100.00
54308;BME280;40208;39.778;2.710;2024-02-26T10:38:35;99439.78;;;11.25;100.00
54308;BME280;40208;39.778;2.710;2024-02-26T10:44:13;99602.28;;;11.96;100.00
54308;BME280;40208;39.778;2.710;2024-02-26T10:46:57;99690.75;;;12.62;100.00
54308;BME280;40208;39.778;2.710;2024-02-26T10:49:46;99692.06;;;12.56;100.00
54308;BME280;40208;39.778;2.710;2024-02-26T10:52:36;99887.66;;;13.02;100.00
54308;BME280;40208;39.778;2.710;2024-02-26T10:55:22;99683.75;;;11.44;100.00
54308;BME280;40208;39.778;2.710;2024-02-26T10:58:08;99684.66;;;11.30;100.00
54308;BME280;40208;39.778;2.710;2024-02-26T11:00:56;99556.53;;;10.32;100.00
54308;BME280;40208;39.778;2.710;2024-02-26T11:03:41;99527.06;;;10.37;100.00
54308;BME280;40208;39.778;2.710;2024-02-26T11:06:27;99912.97;;;12.56;100.00
54308;BME280;40208;39.778;2.710;2024-02-26T11:09:15;99793.88;;;11.94;100.00
54308;BME280;40208;39.778;2.710;2024-02-26T11:12:01;99751.00;;;11.72;100.00
54308;BME280;40208;39.778;2.710;2024-02-26T11:14:46;100060.38;;;13.35;100.00
54308;BME280;40208;39.778;2.710;2024-02-26T11:17:32;100004.25;;;13.11;100.00
54308;BME280;40208;39.778;2.710;2024-02-26T11:20:19;100019.03;;;13.02;100.00
54308;BME280;40208;39.778;2.710;2024-02-26T11:23:05;99973.59;;;12.78;100.00
54308;BME280;40208;39.778;2.710;2024-02-26T11:25:52;99911.97;;;12.32;100.00
54308;BME280;40208;39.778;2.710;2024-02-26T11:28:38;99987.06;;;12.77;100.00
54308;BME280;40208;39.778;2.710;2024-02-26T11:31:26;99828.53;;;11.93;100.00
54308;BME280;40208;39.778;2.710;2024-02-26T11:34:12;99874.59;;;12.33;100.00
54308;BME280;40208;39.778;2.710;2024-02-26T11:36:57;100005.84;;;13.13;100.00
54308;BME280;40208;39.778;2.710;2024-02-26T11:39:45;99753.97;;;11.40;100.00
54308;BME280;40208;39.778;2.710;2024-02-26T11:42:30;100020.69;;;13.18;100.00
54308;BME280;40208;39.778;2.710;2024-02-26T11:48:28;99857.16;;;12.42;100.00
54308;BME280;40208;39.778;2.710;2024-02-26T11:51:13;100018.88;;;13.31;100.00
54308;BME280;40208;39.778;2.710;2024-02-26T11:53:58;99968.97;;;12.94;100.00
54308;BME280;40208;39.778;2.710;2024-02-26T11:56:45;100028.69;;;13.30;100.00
54308;BME280;40208;39.778;2.710;2024-02-26T11:59:39;99853.97;;;12.37;100.00
54308;BME280;40208;39.778;2.710;2024-02-26T12:05:32;99682.31;;;12.05;100.00
54308;BME280;40208;39.778;2.710;2024-02-26T12:08:16;99898.66;;;13.48;100.00
54308;BME280;40208;39.778;2.710;2024-02-26T12:11:04;99929.31;;;13.67;100.00
54308;BME280;40208;39.778;2.710;2024-02-26T12:13:49;99805.88;;;12.78;100.00
54308;BME280;40208;39.778;2.710;2024-02-26T12:16:38;99895.78;;;13.39;100.00
54308;BME280;40208;39.778;2.710;2024-02-26T12:19:24;99749.97;;;12.40;100.00
54308;BME280;40208;39.778;2.710;2024-02-26T12:22:13;99931.06;;;13.55;100.00
54308;BME280;40208;39.778;2.710;2024-02-26T12:25:00;99899.63;;;13.22;100.00
54308;BME280;40208;39.778;2.710;2024-02-26T12:27:48;99945.66;;;13.49;100.00
54308;BME280;40208;39.778;2.710;2024-02-26T12:30:33;99877.34;;;13.10;100.00
54308;BME280;40208;39.778;2.710;2024-02-26T12:33:19;99783.09;;;12.61;100.00
54308;BME280;40208;39.778;2.710;2024-02-26T12:36:04;99848.38;;;13.05;100.00
54308;BME280;40208;39.778;2.710;2024-02-26T12:38:52;99763.09;;;12.56;100.00
54308;BME280;40208;39.778;2.710;2024-02-26T12:41:38;99894.38;;;13.33;100.00
54308;BME280;40208;39.778;2.710;2024-02-26T12:44:27;99757.09;;;12.52;100.00
54308;BME280;40208;39.778;2.710;2024-02-26T12:47:11;99911.00;;;13.49;100.00
54308;BME280;40208;39.778;2.710;2024-02-26T12:50:01;99756.56;;;12.60;100.00
54308;BME280;40208;39.778;2.710;2024-02-26T12:52:47;99820.66;;;12.95;100.00
54308;BME280;40208;39.778;2.710;2024-02-26T12:55:33;99755.28;;;12.78;100.00
54308;BME280;40208;39.778;2.710;2024-02-26T12:58:19;99775.69;;;13.03;100.00
54308;BME280;40208;39.778;2.710;2024-02-26T13:01:14;99785.47;;;13.15;100.00
54308;BME280;40208;39.778;2.710;2024-02-26T13:03:59;99760.81;;;12.75;100.00
54308;BME280;40208;39.778;2.710;2024-02-26T13:06:50;99700.59;;;12.23;100.00
54308;BME280;40208;39.778;2.710;2024-02-26T13:09:35;99881.28;;;13.30;100.00
54308;BME280;40208;39.778;2.710;2024-02-26T13:12:20;99765.31;;;12.75;100.00
54308;BME280;40208;39.778;2.710;2024-02-26T13:15:05;99847.25;;;13.21;100.00
54308;BME280;40208;39.778;2.710;2024-02-26T13:17:50;99832.34;;;13.31;100.00
54308;BME280;40208;39.778;2.710;2024-02-26T13:20:37;99821.06;;;13.14;100.00
54308;BME280;40208;39.778;2.710;2024-02-26T13:23:24;99814.13;;;13.25;100.00
54308;BME280;40208;39.778;2.710;2024-02-26T13:26:12;99885.84;;;13.53;100.00
54308;BME280;40208;39.778;2.710;2024-02-26T13:29:04;99825.66;;;13.62;100.00
54308;BME280;40208;39.778;2.710;2024-02-26T13:31:53;99785.44;;;13.41;100.00
54308;BME280;40208;39.778;2.710;2024-02-26T13:34:38;99844.00;;;13.67;100.00
54308;BME280;40208;39.778;2.710;2024-02-26T13:37:23;99604.94;;;12.21;100.00
54308;BME280;40208;39.778;2.710;2024-02-26T13:40:09;99658.41;;;12.55;100.00
54308;BME280;40208;39.778;2.710;2024-02-26T13:42:55;99795.13;;;13.42;100.00
54308;BME280;40208;39.778;2.710;2024-02-26T13:45:40;99640.53;;;12.57;100.00
54308;BME280;40208;39.778;2.710;2024-02-26T13:48:24;99788.59;;;13.46;100.00
54308;BME280;40208;39.778;2.710;2024-02-26T13:51:10;99656.72;;;12.54;100.00
54308;BME280;40208;39.778;2.710;2024-02-26T13:53:55;99724.16;;;12.79;100.00
54308;BME280;40208;39.778;2.710;2024-02-26T13:56:40;99598.88;;;12.19;100.00
54308;BME280;40208;39.778;2.710;2024-02-26T13:59:25;99609.72;;;12.16;100.00
54308;BME280;40208;39.778;2.710;2024-02-26T14:02:10;99737.81;;;12.87;100.00
54308;BME280;40208;39.778;2.710;2024-02-26T14:04:54;99756.63;;;12.97;100.00
54308;BME280;40208;39.778;2.710;2024-02-26T14:07:39;99775.56;;;13.18;100.00
54308;BME280;40208;39.778;2.710;2024-02-26T14:10:24;99820.09;;;13.41;100.00
54308;BME280;40208;39.778;2.710;2024-02-26T14:13:09;99875.53;;;13.73;100.00
54308;BME280;40208;39.778;2.710;2024-02-26T14:15:54;99685.31;;;12.76;100.00
54308;BME280;40208;39.778;2.710;2024-02-26T14:18:39;99865.84;;;13.96;100.00
54308;BME280;40208;39.778;2.710;2024-02-26T14:21:23;99768.94;;;13.60;100.00
54308;BME280;40208;39.778;2.710;2024-02-26T14:24:08;99829.13;;;13.99;100.00
54308;BME280;40208;39.778;2.710;2024-02-26T14:26:53;99747.63;;;13.60;100.00
54308;BME280;40208;39.778;2.710;2024-02-26T14:29:38;99674.34;;;13.05;100.00
54308;BME280;40208;39.778;2.710;2024-02-26T14:32:26;99814.66;;;13.91;100.00
54308;BME280;40208;39.778;2.710;2024-02-26T14:35:12;99783.94;;;13.85;100.00
54308;BME280;40208;39.778;2.710;2024-02-26T14:37:56;99765.69;;;13.68;100.00